createdAt,value
2017-08-11T00:01:41.611Z,3.85
2017-08-11T00:04:15.896Z,4.30
2017-08-11T00:06:50.357Z,3.90
2017-08-11T00:09:24.728Z,3.97
2017-08-11T00:11:59.233Z,3.42
2017-08-11T00:14:33.941Z,4.35
2017-08-11T00:17:09.125Z,4.47
2017-08-11T00:19:43.628Z,3.83
2017-08-11T00:22:17.943Z,3.30
2017-08-11T00:24:52.292Z,3.60
2017-08-11T00:27:26.729Z,3.80
2017-08-11T00:30:01.124Z,4.60
2017-08-11T00:32:35.532Z,3.55
2017-08-11T00:35:10.797Z,4.00
2017-08-11T00:37:45.129Z,4.15
2017-08-11T00:40:20.233Z,4.35
2017-08-11T00:42:54.749Z,3.37
2017-08-11T00:45:29.248Z,3.67
2017-08-11T00:48:03.826Z,3.75
2017-08-11T00:50:38.205Z,3.80
2017-08-11T00:53:12.620Z,4.80
2017-08-11T00:55:46.941Z,4.72
2017-08-11T00:58:21.288Z,3.95
2017-08-11T01:00:55.686Z,4.35
2017-08-11T01:03:29.992Z,4.10
2017-08-11T01:06:04.336Z,3.83
2017-08-11T01:08:38.748Z,4.60
2017-08-11T01:11:13.148Z,4.00
2017-08-11T01:13:47.522Z,4.50
2017-08-11T01:16:21.876Z,3.87
2017-08-11T01:18:56.457Z,3.78
2017-08-11T01:21:30.933Z,4.20
2017-08-11T01:24:05.393Z,3.60
2017-08-11T01:26:39.741Z,4.25
2017-08-11T01:29:14.433Z,3.35
2017-08-11T01:31:48.864Z,4.05
2017-08-11T01:34:23.377Z,3.85
2017-08-11T01:36:57.633Z,3.90
2017-08-11T01:39:31.969Z,4.78
2017-08-11T01:42:07.469Z,3.85
2017-08-11T01:44:42.656Z,3.45
2017-08-11T01:47:17.164Z,3.45
2017-08-11T01:49:51.468Z,3.17
2017-08-11T01:52:26.153Z,3.35
2017-08-11T01:55:00.500Z,3.70
2017-08-11T01:57:34.864Z,5.75
2017-08-11T02:00:09.199Z,3.15
2017-08-11T02:02:43.584Z,3.22
2017-08-11T02:05:18.744Z,3.08
2017-08-11T02:07:53.074Z,3.15
2017-08-11T02:10:28.392Z,3.50
2017-08-11T02:13:07.389Z,3.35
2017-08-11T02:15:41.736Z,3.20
2017-08-11T02:18:16.412Z,3.20
2017-08-11T02:20:50.802Z,3.03
2017-08-11T02:23:25.096Z,4.12
2017-08-11T02:25:59.573Z,3.42
2017-08-11T02:28:33.953Z,4.15
2017-08-11T02:31:08.376Z,3.60
2017-08-11T02:33:42.832Z,3.80
2017-08-11T02:36:17.217Z,3.87
2017-08-11T02:38:51.605Z,3.95
2017-08-11T02:41:26.668Z,3.15
2017-08-11T02:44:01.028Z,3.47
2017-08-11T02:46:36.423Z,3.72
2017-08-11T02:49:10.965Z,3.90
2017-08-11T02:51:45.401Z,3.45
2017-08-11T02:54:19.769Z,4.07
2017-08-11T02:56:54.096Z,3.03
2017-08-11T02:59:29.229Z,3.50
2017-08-11T03:02:04.540Z,2.80
2017-08-11T03:04:39.110Z,3.35
2017-08-11T03:07:13.480Z,4.37
2017-08-11T03:09:48.061Z,3.47
2017-08-11T03:12:22.442Z,2.97
2017-08-11T03:14:56.873Z,3.10
2017-08-11T03:17:31.275Z,3.95
2017-08-11T03:20:05.801Z,2.62
2017-08-11T03:22:40.416Z,2.85
2017-08-11T03:25:14.988Z,3.10
2017-08-11T03:27:49.489Z,3.90
2017-08-11T03:30:23.897Z,3.85
2017-08-11T03:32:58.307Z,3.97
2017-08-11T03:35:32.654Z,3.33
2017-08-11T03:38:06.944Z,4.37
2017-08-11T03:40:41.697Z,2.78
2017-08-11T03:43:16.072Z,3.92
2017-08-11T03:45:50.493Z,3.62
2017-08-11T03:48:24.828Z,3.33
2017-08-11T03:50:59.120Z,3.65
2017-08-11T03:53:33.462Z,3.42
2017-08-11T03:56:08.669Z,3.30
2017-08-11T03:58:43.924Z,3.05
2017-08-11T04:01:18.468Z,3.67
2017-08-11T04:03:52.796Z,3.40
2017-08-11T04:06:27.184Z,3.58
2017-08-11T04:09:01.705Z,2.78
2017-08-11T04:11:36.257Z,3.35
2017-08-11T04:14:10.592Z,3.35
2017-08-11T04:16:44.993Z,4.05
2017-08-11T04:19:19.325Z,3.90
2017-08-11T04:21:53.804Z,3.53
2017-08-11T04:24:28.206Z,3.25
2017-08-11T04:27:03.374Z,3.67
2017-08-11T04:29:37.672Z,3.95
2017-08-11T04:32:11.990Z,3.42
2017-08-11T04:34:47.239Z,4.05
2017-08-11T04:37:21.718Z,3.30
2017-08-11T04:39:56.072Z,3.20
2017-08-11T04:42:30.674Z,3.30
2017-08-11T04:45:05.004Z,3.20
2017-08-11T04:47:40.199Z,3.65
2017-08-11T04:50:15.310Z,3.37
2017-08-11T04:52:49.683Z,3.65
2017-08-11T04:55:25.109Z,3.37
2017-08-11T04:57:59.585Z,3.70
2017-08-11T05:00:34.066Z,3.60
2017-08-11T05:03:08.520Z,3.00
2017-08-11T05:05:43.634Z,3.90
2017-08-11T05:08:18.204Z,3.78
2017-08-11T05:10:52.578Z,4.93
2017-08-11T05:13:27.344Z,3.55
2017-08-11T05:16:01.741Z,4.15
2017-08-11T05:18:36.104Z,3.35
2017-08-11T05:21:10.511Z,3.70
2017-08-11T05:23:45.016Z,5.18
2017-08-11T05:26:20.140Z,3.00
2017-08-11T05:28:54.504Z,3.72
2017-08-11T05:31:28.980Z,4.35
2017-08-11T05:34:04.188Z,3.50
2017-08-11T05:36:38.649Z,2.78
2017-08-11T05:39:13.848Z,3.83
2017-08-11T05:41:48.357Z,3.37
2017-08-11T05:44:22.792Z,3.28
2017-08-11T05:46:57.168Z,3.00
2017-08-11T05:49:32.249Z,3.58
2017-08-11T05:52:07.018Z,2.95
2017-08-11T05:54:42.372Z,3.15
2017-08-11T05:57:16.736Z,3.08
2017-08-11T05:59:51.271Z,3.00
2017-08-11T06:02:26.647Z,3.60
2017-08-11T06:05:01.137Z,3.30
2017-08-11T06:07:35.660Z,3.12
2017-08-11T06:10:10.197Z,3.25
2017-08-11T06:12:44.743Z,3.28
2017-08-11T06:15:19.201Z,3.05
2017-08-11T06:17:54.353Z,3.03
2017-08-11T06:20:28.894Z,3.17
2017-08-11T06:23:04.025Z,3.50
2017-08-11T06:25:38.344Z,3.00
2017-08-11T06:28:12.870Z,3.10
2017-08-11T06:30:47.261Z,3.25
2017-08-11T06:33:21.804Z,2.47
2017-08-11T06:35:56.189Z,2.80
2017-08-11T06:38:30.762Z,3.10
2017-08-11T06:41:06.058Z,3.35
2017-08-11T06:43:40.716Z,3.12
2017-08-11T06:46:15.156Z,3.03
2017-08-11T06:48:49.496Z,3.20
2017-08-11T06:51:23.768Z,2.92
2017-08-11T06:53:58.205Z,3.00
2017-08-11T06:56:32.561Z,3.10
2017-08-11T06:59:06.886Z,3.80
2017-08-11T07:01:41.432Z,3.17
2017-08-11T07:04:15.856Z,2.75
2017-08-11T07:06:50.177Z,2.45
2017-08-11T07:09:24.705Z,2.90
2017-08-11T07:11:59.204Z,3.05
2017-08-11T07:14:33.680Z,2.50
2017-08-11T07:17:08.029Z,2.70
2017-08-11T07:19:42.513Z,2.92
2017-08-11T07:22:17.001Z,4.10
2017-08-11T07:24:51.515Z,2.70
2017-08-11T07:27:25.809Z,2.72
2017-08-11T07:30:00.328Z,3.05
2017-08-11T07:32:35.368Z,3.17
2017-08-11T07:35:09.701Z,3.10
2017-08-11T07:37:44.004Z,2.70
2017-08-11T07:40:18.722Z,2.60
2017-08-11T07:42:53.169Z,3.42
2017-08-11T07:45:27.672Z,3.70
2017-08-11T07:48:01.971Z,3.22
2017-08-11T07:50:36.438Z,3.20
2017-08-11T07:53:10.876Z,4.62
2017-08-11T07:55:45.480Z,3.28
2017-08-11T07:58:19.997Z,3.95
2017-08-11T08:00:54.376Z,3.67
2017-08-11T08:03:28.699Z,3.92
2017-08-11T08:06:03.164Z,2.70
2017-08-11T08:08:37.461Z,4.07
2017-08-11T08:11:11.880Z,3.15
2017-08-11T08:13:46.295Z,2.50
2017-08-11T08:16:20.785Z,3.10
2017-08-11T08:18:55.172Z,3.03
2017-08-11T08:21:29.697Z,3.62
2017-08-11T08:24:04.188Z,3.08
2017-08-11T08:26:38.605Z,3.25
2017-08-11T08:29:14.082Z,3.40
2017-08-11T08:31:48.377Z,3.00
2017-08-11T08:34:22.915Z,3.05
2017-08-11T08:36:57.392Z,3.53
2017-08-11T08:39:31.849Z,3.72
2017-08-11T08:42:06.204Z,2.80
2017-08-11T08:44:40.509Z,2.70
2017-08-11T08:47:14.820Z,3.60
2017-08-11T08:49:49.389Z,3.40
2017-08-11T08:52:23.718Z,2.70
2017-08-11T08:54:58.156Z,3.20
2017-08-11T08:57:32.940Z,3.67
2017-08-11T09:00:07.412Z,3.40
2017-08-11T09:02:41.805Z,3.03
2017-08-11T09:05:16.243Z,3.00
2017-08-11T09:07:52.085Z,2.80
2017-08-11T09:10:26.420Z,2.72
2017-08-11T09:13:00.782Z,3.25
2017-08-11T09:15:35.226Z,3.10
2017-08-11T09:18:09.694Z,2.58
2017-08-11T09:20:44.113Z,3.25
2017-08-11T09:23:19.196Z,2.62
2017-08-11T09:26:06.172Z,3.55
2017-08-11T09:28:52.496Z,3.28
2017-08-11T09:31:51.725Z,2.90
2017-08-11T09:34:37.860Z,2.78
2017-08-11T09:37:12.924Z,3.00
2017-08-11T09:39:47.235Z,3.60
2017-08-11T09:42:21.669Z,3.28
2017-08-11T09:44:55.974Z,2.70
2017-08-11T09:47:30.276Z,3.05
2017-08-11T09:50:04.741Z,3.15
2017-08-11T09:52:39.088Z,3.37
2017-08-11T09:55:13.608Z,3.03
2017-08-11T09:57:47.968Z,3.10
2017-08-11T10:00:22.356Z,3.37
2017-08-11T10:02:56.854Z,3.12
2017-08-11T10:05:31.564Z,2.95
2017-08-11T10:08:05.876Z,3.60
2017-08-11T10:10:40.296Z,2.78
2017-08-11T10:13:15.596Z,3.08
2017-08-11T10:15:50.068Z,3.00
2017-08-11T10:18:25.164Z,3.15
2017-08-11T10:21:00.298Z,2.60
2017-08-11T10:23:34.639Z,2.97
2017-08-11T10:26:09.245Z,6.03
2017-08-11T10:28:43.567Z,5.43
2017-08-11T10:31:18.049Z,3.85
2017-08-11T10:33:52.413Z,2.95
2017-08-11T10:36:26.988Z,4.00
2017-08-11T10:39:01.479Z,3.05
2017-08-11T10:41:36.780Z,3.30
2017-08-11T10:44:11.333Z,4.78
2017-08-11T10:46:45.746Z,4.93
2017-08-11T10:49:20.853Z,3.75
2017-08-11T10:51:55.366Z,3.62
2017-08-11T10:54:29.715Z,3.65
2017-08-11T10:57:04.132Z,3.80
2017-08-11T10:59:38.444Z,2.90
2017-08-11T11:02:12.988Z,3.30
2017-08-11T11:04:47.296Z,3.17
2017-08-11T11:07:21.629Z,3.97
2017-08-11T11:09:56.008Z,2.92
2017-08-11T11:12:30.319Z,3.35
2017-08-11T11:15:04.764Z,3.72
2017-08-11T11:17:39.165Z,2.85
2017-08-11T11:20:13.514Z,3.45
2017-08-11T11:22:47.977Z,3.72
2017-08-11T11:25:22.454Z,3.47
2017-08-11T11:27:56.808Z,3.12
2017-08-11T11:30:31.162Z,3.67
2017-08-11T11:33:05.609Z,2.65
2017-08-11T11:35:40.821Z,3.28
2017-08-11T11:38:15.253Z,3.25
2017-08-11T11:40:50.100Z,3.60
2017-08-11T11:43:24.752Z,3.62
2017-08-11T11:45:59.161Z,3.67
2017-08-11T11:48:33.544Z,4.00
2017-08-11T11:51:07.846Z,3.35
2017-08-11T11:53:42.329Z,2.80
2017-08-11T11:56:16.837Z,3.45
2017-08-11T11:58:51.213Z,3.78
2017-08-11T12:01:25.621Z,4.18
2017-08-11T12:04:00.173Z,3.35
2017-08-11T12:06:34.492Z,3.53
2017-08-11T12:09:08.968Z,3.60
2017-08-11T12:11:43.310Z,3.60
2017-08-11T12:14:17.633Z,4.32
2017-08-11T12:16:52.148Z,3.50
2017-08-11T12:19:26.684Z,4.30
2017-08-11T12:22:01.948Z,5.43
2017-08-11T12:24:36.357Z,6.22
2017-08-11T12:27:11.668Z,3.45
2017-08-11T12:29:46.141Z,4.10
2017-08-11T12:32:20.756Z,3.25
2017-08-11T12:34:55.088Z,3.85
2017-08-11T12:37:30.597Z,3.60
2017-08-11T12:40:04.996Z,3.28
2017-08-11T12:42:39.421Z,3.58
2017-08-11T12:45:13.930Z,3.97
2017-08-11T12:47:48.393Z,3.05
2017-08-11T12:50:26.116Z,3.33
2017-08-11T12:53:00.797Z,3.80
2017-08-11T12:55:35.161Z,4.20
2017-08-11T12:58:10.295Z,4.60
2017-08-11T13:00:44.797Z,5.15
2017-08-11T13:03:19.269Z,4.50
2017-08-11T13:05:53.595Z,3.97
2017-08-11T13:08:28.023Z,5.10
2017-08-11T13:11:02.312Z,4.75
2017-08-11T13:13:37.565Z,4.32
2017-08-11T13:16:12.116Z,5.32
2017-08-11T13:18:46.533Z,7.80
2017-08-11T13:21:20.960Z,6.12
2017-08-11T13:23:55.316Z,4.62
2017-08-11T13:26:29.696Z,4.80
2017-08-11T13:29:04.884Z,4.50
2017-08-11T13:31:39.241Z,4.70
2017-08-11T13:34:13.757Z,4.65
2017-08-11T13:36:48.881Z,5.03
2017-08-11T13:39:23.393Z,5.18
2017-08-11T13:41:57.946Z,6.10
2017-08-11T13:44:32.539Z,4.62
2017-08-11T13:47:06.975Z,4.80
2017-08-11T13:49:41.291Z,4.00
2017-08-11T13:52:15.821Z,4.10
2017-08-11T13:54:50.272Z,4.18
2017-08-11T13:57:24.732Z,3.75
2017-08-11T13:59:59.274Z,5.53
2017-08-11T14:02:33.665Z,3.67
2017-08-11T14:05:08.198Z,5.20
2017-08-11T14:07:42.600Z,3.92
2017-08-11T14:10:16.965Z,4.50
2017-08-11T14:12:51.430Z,5.40
2017-08-11T14:15:25.906Z,4.15
2017-08-11T14:18:00.193Z,4.70
2017-08-11T14:20:34.524Z,5.72
2017-08-11T14:23:08.884Z,5.18
2017-08-11T14:25:43.429Z,3.80
2017-08-11T14:28:17.785Z,4.47
2017-08-11T14:30:52.264Z,3.97
2017-08-11T14:33:26.689Z,3.00
2017-08-11T14:36:00.981Z,4.65
2017-08-11T14:38:35.363Z,4.55
2017-08-11T14:41:10.573Z,3.97
2017-08-11T14:43:45.626Z,3.80
2017-08-11T14:46:20.025Z,4.68
2017-08-11T14:48:54.589Z,4.68
2017-08-11T14:51:28.960Z,3.75
2017-08-11T14:54:03.400Z,4.25
2017-08-11T14:56:38.514Z,4.53
2017-08-11T14:59:13.696Z,4.93
2017-08-11T15:01:48.165Z,4.15
2017-08-11T15:04:22.517Z,4.62
2017-08-11T15:06:56.849Z,4.45
2017-08-11T15:09:33.479Z,4.35
2017-08-11T15:12:07.828Z,4.50
2017-08-11T15:14:42.389Z,4.35
2017-08-11T15:17:16.690Z,4.75
2017-08-11T15:19:51.597Z,4.80
2017-08-11T15:22:25.894Z,4.32
2017-08-11T15:25:00.657Z,4.22
2017-08-11T15:27:35.105Z,4.20
2017-08-11T15:30:10.307Z,3.95
2017-08-11T15:32:45.405Z,4.15
2017-08-11T15:35:19.881Z,4.62
2017-08-11T15:37:54.277Z,4.70
2017-08-11T15:40:28.812Z,4.00
2017-08-11T15:43:03.258Z,4.55
2017-08-11T15:45:37.724Z,4.43
2017-08-11T15:48:12.265Z,5.07
2017-08-11T15:50:46.572Z,4.45
2017-08-11T15:53:21.082Z,4.15
2017-08-11T15:55:56.444Z,5.00
2017-08-11T15:58:38.860Z,4.30
2017-08-11T16:01:13.340Z,4.70
2017-08-11T16:03:47.885Z,4.57
2017-08-11T16:06:22.512Z,4.87
2017-08-11T16:08:57.025Z,5.30
2017-08-11T16:11:32.481Z,4.72
2017-08-11T16:14:06.959Z,4.75
2017-08-11T16:16:41.461Z,5.15
2017-08-11T16:19:16.530Z,4.60
2017-08-11T16:21:51.197Z,4.75
2017-08-11T16:24:25.585Z,5.75
2017-08-11T16:27:01.047Z,4.80
2017-08-11T16:29:35.458Z,4.93
2017-08-11T16:32:10.120Z,4.43
2017-08-11T16:34:44.641Z,4.90
2017-08-11T16:37:19.017Z,4.60
2017-08-11T16:39:53.352Z,4.80
2017-08-11T16:42:27.736Z,4.82
2017-08-11T16:45:02.302Z,4.50
2017-08-11T16:47:36.689Z,4.80
2017-08-11T16:50:12.350Z,4.40
2017-08-11T16:52:46.891Z,5.70
2017-08-11T16:55:21.404Z,5.78
2017-08-11T16:57:55.708Z,5.55
2017-08-11T17:00:30.133Z,5.80
2017-08-11T17:03:04.455Z,5.05
2017-08-11T17:05:38.772Z,5.40
2017-08-11T17:08:13.069Z,4.70
2017-08-11T17:10:47.581Z,4.87
2017-08-11T17:13:21.961Z,6.22
2017-08-11T17:15:56.318Z,5.57
2017-08-11T17:18:30.671Z,5.10
2017-08-11T17:21:05.045Z,4.68
2017-08-11T17:23:40.400Z,5.55
2017-08-11T17:26:14.824Z,5.20
2017-08-11T17:28:49.211Z,6.37
2017-08-11T17:31:23.638Z,5.00
2017-08-11T17:33:58.313Z,5.30
2017-08-11T17:36:32.701Z,5.20
2017-08-11T17:39:07.041Z,4.97
2017-08-11T17:41:41.465Z,5.50
2017-08-11T17:44:15.768Z,4.78
2017-08-11T17:46:50.101Z,4.20
2017-08-11T17:49:24.605Z,4.45
2017-08-11T17:51:59.104Z,4.65
2017-08-11T17:54:33.540Z,4.68
2017-08-11T17:57:08.557Z,4.97
2017-08-11T17:59:42.961Z,4.20
2017-08-11T18:02:17.489Z,5.07
2017-08-11T18:04:51.865Z,4.12
2017-08-11T18:07:26.331Z,5.30
2017-08-11T18:10:00.620Z,4.10
2017-08-11T18:12:34.996Z,4.90
2017-08-11T18:15:10.100Z,4.15
2017-08-11T18:17:44.625Z,6.30
2017-08-11T18:20:19.757Z,5.40
2017-08-11T18:22:55.249Z,4.15
2017-08-11T18:25:30.543Z,4.87
2017-08-11T18:28:05.414Z,4.85
2017-08-11T18:30:39.928Z,4.20
2017-08-11T18:33:15.157Z,5.45
2017-08-11T18:35:49.642Z,5.05
2017-08-11T18:38:23.954Z,5.28
2017-08-11T18:40:58.270Z,4.82
2017-08-11T18:43:32.825Z,5.35
2017-08-11T18:46:07.358Z,4.57
2017-08-11T18:48:41.768Z,4.20
2017-08-11T18:51:16.324Z,4.57
2017-08-11T18:53:51.029Z,4.70
2017-08-11T18:56:25.428Z,5.18
2017-08-11T18:58:59.984Z,3.92
2017-08-11T19:01:35.077Z,4.93
2017-08-11T19:04:10.345Z,5.65
2017-08-11T19:06:44.768Z,4.87
2017-08-11T19:09:19.044Z,7.50
2017-08-11T19:11:53.354Z,7.95
2017-08-11T19:14:27.865Z,8.32
2017-08-11T19:17:02.330Z,7.80
2017-08-11T19:19:36.741Z,8.43
2017-08-11T19:22:11.873Z,8.48
2017-08-11T19:24:46.435Z,9.02
2017-08-11T19:27:20.704Z,7.43
2017-08-11T19:32:34.565Z,8.65
2017-08-11T19:35:10.049Z,9.30
2017-08-11T19:37:44.417Z,7.93
2017-08-11T19:40:19.022Z,9.02
2017-08-11T19:42:53.325Z,7.62
2017-08-11T19:45:28.664Z,7.93
2017-08-11T19:48:04.095Z,7.55
2017-08-11T19:50:39.036Z,7.70
2017-08-11T19:53:13.414Z,7.05
2017-08-11T19:55:47.773Z,6.95
2017-08-11T19:58:22.258Z,7.72
2017-08-11T20:00:56.676Z,5.90
2017-08-11T20:03:31.068Z,6.70
2017-08-11T20:06:05.536Z,5.78
2017-08-11T20:08:39.906Z,6.07
2017-08-11T20:11:14.397Z,7.30
2017-08-11T20:13:48.888Z,6.30
2017-08-11T20:16:23.441Z,5.10
2017-08-11T20:18:57.899Z,5.95
2017-08-11T20:21:33.168Z,6.03
2017-08-11T20:24:07.629Z,5.72
2017-08-11T20:26:42.125Z,6.10
2017-08-11T20:29:16.557Z,6.15
2017-08-11T20:31:51.224Z,5.72
2017-08-11T20:34:25.573Z,5.40
2017-08-11T20:37:00.001Z,5.80
2017-08-11T20:39:34.480Z,5.68
2017-08-11T20:42:08.835Z,4.72
2017-08-11T20:44:43.129Z,5.90
2017-08-11T20:47:17.552Z,5.80
2017-08-11T20:49:51.953Z,5.70
2017-08-11T20:52:26.716Z,5.68
2017-08-11T20:55:01.034Z,6.25
2017-08-11T20:57:35.553Z,5.70
2017-08-11T21:00:09.816Z,6.12
2017-08-11T21:02:44.304Z,5.60
2017-08-11T21:05:18.797Z,5.37
2017-08-11T21:07:53.292Z,6.07
2017-08-11T21:10:27.734Z,5.70
2017-08-11T21:13:02.131Z,6.18
2017-08-11T21:15:36.637Z,6.72
2017-08-11T21:18:11.107Z,7.25
2017-08-11T21:20:45.652Z,7.03
2017-08-11T21:23:20.013Z,6.43
2017-08-11T21:25:55.501Z,6.00
2017-08-11T21:28:29.876Z,5.85
2017-08-11T21:31:04.577Z,6.80
2017-08-11T21:33:39.039Z,5.57
2017-08-11T21:36:14.136Z,5.93
2017-08-11T21:38:48.988Z,4.00
2017-08-11T21:41:23.403Z,6.10
2017-08-11T21:43:57.853Z,5.20
2017-08-11T21:46:32.267Z,5.22
2017-08-11T21:49:06.660Z,4.90
2017-08-11T21:51:41.320Z,4.65
2017-08-11T21:54:16.409Z,3.92
2017-08-11T21:56:50.924Z,4.62
2017-08-11T21:59:26.741Z,4.47
2017-08-11T22:02:01.182Z,4.37
2017-08-11T22:04:35.612Z,4.50
2017-08-11T22:07:10.080Z,3.95
2017-08-11T22:09:44.600Z,3.95
2017-08-11T22:12:19.016Z,3.37
2017-08-11T22:14:53.439Z,3.78
2017-08-11T22:17:27.922Z,4.68
2017-08-11T22:20:02.244Z,3.40
2017-08-11T22:22:36.724Z,3.10
2017-08-11T22:25:11.101Z,3.50
2017-08-11T22:27:45.432Z,4.20
2017-08-11T22:30:19.970Z,3.70
2017-08-11T22:32:54.377Z,3.80
2017-08-11T22:35:28.875Z,4.40
2017-08-11T22:38:03.353Z,3.67
2017-08-11T22:40:37.776Z,3.65
2017-08-11T22:43:12.377Z,3.50
2017-08-11T22:45:46.788Z,3.47
2017-08-11T22:48:21.316Z,3.42
2017-08-11T22:50:55.692Z,3.45
2017-08-11T22:53:30.397Z,4.00
2017-08-11T22:56:04.927Z,3.55
2017-08-11T22:58:39.516Z,3.92
2017-08-11T23:01:13.988Z,3.58
2017-08-11T23:03:48.665Z,3.47
2017-08-11T23:06:23.147Z,3.62
2017-08-11T23:08:58.231Z,3.12
2017-08-11T23:11:32.676Z,3.15
2017-08-11T23:14:07.004Z,3.35
2017-08-11T23:16:41.321Z,3.40
2017-08-11T23:19:15.665Z,3.50
2017-08-11T23:21:50.019Z,3.10
2017-08-11T23:24:24.520Z,2.97
2017-08-11T23:26:58.913Z,3.40
2017-08-11T23:29:33.380Z,3.20
2017-08-11T23:32:07.860Z,3.15
2017-08-11T23:34:42.361Z,3.70
2017-08-11T23:37:16.873Z,2.75
2017-08-11T23:39:51.309Z,3.83
2017-08-11T23:42:25.682Z,3.08
2017-08-11T23:45:00.278Z,3.83
2017-08-11T23:47:34.792Z,3.22
2017-08-11T23:50:09.453Z,3.10
2017-08-11T23:52:43.981Z,3.55
2017-08-11T23:55:18.441Z,3.70
2017-08-11T23:57:52.864Z,3.83
